createdAt,value
2018-02-15T00:00:23.100Z,-8.4
2018-02-15T00:01:45.466Z,-8.3
2018-02-15T00:03:05.335Z,-8.1
2018-02-15T00:04:32.746Z,-8.1
2018-02-15T00:05:52.626Z,-8.1
2018-02-15T00:07:12.461Z,-8.1
2018-02-15T00:08:44.997Z,-8
2018-02-15T00:10:04.871Z,-8
2018-02-15T00:11:24.700Z,-8.1
2018-02-15T00:12:44.515Z,-7.9
2018-02-15T00:14:04.383Z,-7.7
2018-02-15T00:15:36.880Z,-7.6
2018-02-15T00:16:56.712Z,-7.7
2018-02-15T00:18:21.617Z,-7.6
2018-02-15T00:19:43.979Z,-7.5
2018-02-15T00:21:03.805Z,-7.4
2018-02-15T00:22:26.228Z,-7.5
2018-02-15T00:23:51.120Z,-7.4
2018-02-15T00:25:10.980Z,-7.4
2018-02-15T00:26:35.921Z,-7.2
2018-02-15T00:27:55.776Z,-7.2
2018-02-15T00:29:23.231Z,-7.2
2018-02-15T00:30:43.074Z,-7.2
2018-02-15T00:32:02.924Z,-7.1
2018-02-15T00:33:22.758Z,-7
2018-02-15T00:34:42.638Z,-7
2018-02-15T00:36:02.451Z,-7
2018-02-15T00:37:22.288Z,-7
2018-02-15T00:38:42.140Z,-6.6
2018-02-15T00:40:04.508Z,-6.4
2018-02-15T00:41:24.383Z,-6.1
2018-02-15T00:42:46.791Z,-5.9
2018-02-15T00:44:06.674Z,-5.8
2018-02-15T00:45:29.035Z,-5.8
2018-02-15T00:46:51.410Z,-5.3
2018-02-15T00:48:21.435Z,-5.2
2018-02-15T00:49:43.789Z,-5.1
2018-02-15T00:51:06.180Z,-5.2
2018-02-15T00:52:28.546Z,-5
2018-02-15T00:53:48.411Z,-4.9
2018-02-15T00:55:08.227Z,-4.7
2018-02-15T00:56:28.076Z,-4.6
2018-02-15T00:57:47.942Z,-4.4
2018-02-15T00:59:12.837Z,-4.3
2018-02-15T01:00:32.650Z,-4.3
2018-02-15T01:01:52.502Z,-4.2
2018-02-15T01:03:19.935Z,-4.2
2018-02-15T01:04:42.296Z,-4
2018-02-15T01:06:04.653Z,-4
2018-02-15T01:07:32.058Z,-4.1
2018-02-15T01:08:59.487Z,-4.1
2018-02-15T01:10:21.877Z,-4.1
2018-02-15T01:11:51.861Z,-4.1
2018-02-15T01:13:24.396Z,-4
2018-02-15T01:14:46.768Z,-4.1
2018-02-15T01:16:06.627Z,-4
2018-02-15T01:17:26.531Z,-4
2018-02-15T01:18:48.931Z,-3.8
2018-02-15T01:20:13.820Z,-3.7
2018-02-15T01:21:33.650Z,-3.7
2018-02-15T01:22:53.498Z,-3.6
2018-02-15T01:24:31.122Z,-3.5
2018-02-15T01:25:50.982Z,-3.6
2018-02-15T01:27:13.415Z,-3.5
2018-02-15T01:28:33.246Z,-3.5
2018-02-15T01:29:58.151Z,-3.5
2018-02-15T01:31:17.968Z,-3.5
2018-02-15T01:32:37.783Z,-3.5
2018-02-15T01:34:02.714Z,-3.4
2018-02-15T01:35:22.532Z,-3.4
2018-02-15T01:36:42.375Z,-3.3
2018-02-15T01:38:02.193Z,-3.4
2018-02-15T01:39:24.600Z,-3.3
2018-02-15T01:40:49.476Z,-3.4
2018-02-15T01:42:16.947Z,-3.4
2018-02-15T01:43:41.826Z,-3.2
2018-02-15T01:45:04.169Z,-3.2
2018-02-15T01:46:24.023Z,-3.1
2018-02-15T01:47:43.828Z,-3.1
2018-02-15T01:49:03.646Z,-3.3
2018-02-15T01:50:23.470Z,-3.1
2018-02-15T01:51:43.334Z,-3.1
2018-02-15T01:53:03.145Z,-3
2018-02-15T01:54:22.955Z,-3
2018-02-15T01:55:57.986Z,-3
2018-02-15T01:57:17.883Z,-3
2018-02-15T01:58:37.713Z,-2.8
2018-02-15T02:00:00.084Z,-2.7
2018-02-15T02:01:19.916Z,-2.7
2018-02-15T02:02:42.275Z,-2.7
2018-02-15T02:04:02.084Z,-2.6
2018-02-15T02:05:21.935Z,-2.7
2018-02-15T02:06:44.291Z,-2.7
2018-02-15T02:08:06.668Z,-2.7
2018-02-15T02:09:29.077Z,-2.7
2018-02-15T02:10:48.891Z,-2.7
2018-02-15T02:12:11.292Z,-2.6
2018-02-15T02:13:31.185Z,-2.5
2018-02-15T02:14:53.543Z,-2.5
2018-02-15T02:16:13.365Z,-2.5
2018-02-15T02:17:35.802Z,-2.5
2018-02-15T02:19:00.735Z,-2.6
2018-02-15T02:20:23.083Z,-2.5
2018-02-15T02:21:45.430Z,-2.5
2018-02-15T02:23:05.237Z,-2.5
2018-02-15T02:24:25.088Z,-2.5
2018-02-15T02:25:44.934Z,-2.5
2018-02-15T02:27:04.803Z,-2.5
2018-02-15T02:28:24.644Z,-2.5
2018-02-15T02:29:44.476Z,-2.5
2018-02-15T02:31:06.876Z,-2.4
2018-02-15T02:32:31.776Z,-2.5
2018-02-15T02:33:51.649Z,-2.6
2018-02-15T02:35:11.509Z,-2.6
2018-02-15T02:36:31.366Z,-2.6
2018-02-15T02:37:51.216Z,-2.8
2018-02-15T02:39:18.679Z,-2.8
2018-02-15T02:40:48.670Z,-2.8
2018-02-15T02:42:08.493Z,-2.7
2018-02-15T02:43:28.345Z,-2.6
2018-02-15T02:44:50.712Z,-2.7
2018-02-15T02:46:10.533Z,-2.8
2018-02-15T02:47:40.528Z,-2.6
2018-02-15T02:49:02.940Z,-2.6
2018-02-15T02:50:35.469Z,-2.7
2018-02-15T02:52:07.977Z,-2.7
2018-02-15T02:53:27.864Z,-2.8
2018-02-15T02:54:47.733Z,-2.9
2018-02-15T02:56:10.107Z,-2.8
2018-02-15T02:57:29.925Z,-2.7
2018-02-15T02:58:54.803Z,-2.7
2018-02-15T03:00:19.732Z,-2.7
2018-02-15T03:01:42.118Z,-2.7
2018-02-15T03:03:04.509Z,-2.7
2018-02-15T03:04:24.346Z,-2.5
2018-02-15T03:05:46.699Z,-2.4
2018-02-15T03:07:06.551Z,-2.3
2018-02-15T03:08:39.042Z,-2.2
2018-02-15T03:09:58.880Z,-2.1
2018-02-15T03:11:21.277Z,-2.1
2018-02-15T03:12:48.672Z,-2.1
2018-02-15T03:14:08.485Z,-2.1
2018-02-15T03:15:28.340Z,-2.2
2018-02-15T03:16:53.236Z,-2.2
2018-02-15T03:18:13.064Z,-2.3
2018-02-15T03:19:53.139Z,-2.3
2018-02-15T03:21:12.962Z,-2.3
2018-02-15T03:22:32.787Z,-2.3
2018-02-15T03:23:55.202Z,-2.3
2018-02-15T03:25:15.069Z,-2.3
2018-02-15T03:26:34.891Z,-2.3
2018-02-15T03:28:02.322Z,-2.3
2018-02-15T03:29:27.198Z,-2.3
2018-02-15T03:30:54.616Z,-2.2
2018-02-15T03:32:16.974Z,-2.2
2018-02-15T03:33:36.848Z,-2.3
2018-02-15T03:35:04.289Z,-2.2
2018-02-15T03:36:24.103Z,-2.2
2018-02-15T03:37:43.920Z,-2.2
2018-02-15T03:39:03.784Z,-2.2
2018-02-15T03:40:23.603Z,-2.2
2018-02-15T03:42:01.172Z,-2.1
2018-02-15T03:43:31.177Z,-2.1
2018-02-15T03:44:56.132Z,-2.1
2018-02-15T03:46:18.495Z,-2.1
2018-02-15T03:47:38.333Z,-2.1
2018-02-15T03:49:00.701Z,-2.1
2018-02-15T03:50:20.527Z,-2.2
2018-02-15T03:51:42.925Z,-2.2
2018-02-15T03:53:05.277Z,-2.2
2018-02-15T03:54:27.617Z,-2.2
2018-02-15T03:55:47.476Z,-2.1
2018-02-15T03:57:12.430Z,-2
2018-02-15T03:58:32.281Z,-2
2018-02-15T04:00:02.252Z,-2
2018-02-15T04:01:22.114Z,-2
2018-02-15T04:02:46.995Z,-1.8
2018-02-15T04:04:16.961Z,-1.8
2018-02-15T04:05:36.779Z,-1.8
2018-02-15T04:06:56.643Z,-1.7
2018-02-15T04:08:19.053Z,-1.8
2018-02-15T04:09:38.874Z,-1.8
2018-02-15T04:10:58.740Z,-1.8
2018-02-15T04:12:31.217Z,-1.7
2018-02-15T04:13:51.107Z,-1.7
2018-02-15T04:15:16.015Z,-1.7
2018-02-15T04:16:35.909Z,-1.7
2018-02-15T04:18:00.858Z,-1.7
2018-02-15T04:19:20.750Z,-1.7
2018-02-15T04:20:40.569Z,-1.7
2018-02-15T04:22:00.480Z,-1.8
2018-02-15T04:23:25.401Z,-1.7
2018-02-15T04:24:45.227Z,-1.7
2018-02-15T04:26:10.149Z,-1.6
2018-02-15T04:27:32.513Z,-1.7
2018-02-15T04:28:54.884Z,-1.7
2018-02-15T04:30:22.323Z,-1.7
2018-02-15T04:31:49.750Z,-1.7
2018-02-15T04:33:12.105Z,-1.7
2018-02-15T04:34:39.550Z,-1.7
2018-02-15T04:36:01.923Z,-1.7
2018-02-15T04:37:21.742Z,-1.6
2018-02-15T04:38:51.730Z,-1.6
2018-02-15T04:40:14.072Z,-1.6
2018-02-15T04:41:44.038Z,-1.6
2018-02-15T04:43:06.418Z,-1.6
2018-02-15T04:44:26.285Z,-1.6
2018-02-15T04:45:46.134Z,-1.6
2018-02-15T04:47:05.993Z,-1.6
2018-02-15T04:48:25.873Z,-1.6
2018-02-15T04:49:45.719Z,-1.5
2018-02-15T04:51:05.548Z,-1.5
2018-02-15T04:52:25.415Z,-1.5
2018-02-15T04:53:45.246Z,-1.6
2018-02-15T04:55:10.144Z,-1.5
2018-02-15T04:56:32.549Z,-1.5
2018-02-15T04:57:57.473Z,-1.5
2018-02-15T04:59:17.331Z,-1.5
2018-02-15T05:00:37.193Z,-1.4
2018-02-15T05:01:57.031Z,-1.4
2018-02-15T05:03:16.868Z,-1.4
2018-02-15T05:04:36.696Z,-1.4
2018-02-15T05:05:59.082Z,-1.3
2018-02-15T05:07:18.908Z,-1.3
2018-02-15T05:08:38.740Z,-1.4
2018-02-15T05:10:01.126Z,-1.3
2018-02-15T05:11:23.520Z,-1.3
2018-02-15T05:12:43.375Z,-1.3
2018-02-15T05:14:05.770Z,-1.3
2018-02-15T05:15:25.621Z,-1.4
2018-02-15T05:16:50.554Z,-1.3
2018-02-15T05:18:12.920Z,-1.3
2018-02-15T05:19:35.264Z,-1.3
2018-02-15T05:20:55.148Z,-1.3
2018-02-15T05:22:22.556Z,-1.3
2018-02-15T05:23:52.518Z,-1.3
2018-02-15T05:25:12.346Z,-1.2
2018-02-15T05:26:32.232Z,-1.3
2018-02-15T05:27:54.623Z,-1.3
2018-02-15T05:29:14.453Z,-1.3
2018-02-15T05:30:34.313Z,-1.3
2018-02-15T05:31:54.130Z,-1.3
2018-02-15T05:33:19.043Z,-1.3
2018-02-15T05:34:51.549Z,-1.4
2018-02-15T05:36:11.411Z,-1.3
2018-02-15T05:37:33.778Z,-1.3
2018-02-15T05:38:53.645Z,-1.3
2018-02-15T05:40:18.558Z,-1.3
2018-02-15T05:41:38.414Z,-1.3
2018-02-15T05:42:58.290Z,-1.4
2018-02-15T05:44:25.749Z,-1.4
2018-02-15T05:45:45.631Z,-1.4
2018-02-15T05:47:05.480Z,-1.4
2018-02-15T05:48:25.336Z,-1.4
2018-02-15T05:49:47.725Z,-1.4
2018-02-15T05:51:15.129Z,-1.4
2018-02-15T05:52:35.006Z,-1.4
2018-02-15T05:53:57.388Z,-1.4
2018-02-15T05:55:32.380Z,-1.4
2018-02-15T05:56:54.734Z,-1.4
2018-02-15T05:58:17.109Z,-1.4
2018-02-15T05:59:39.497Z,-1.4
2018-02-15T06:01:01.899Z,-1.4
2018-02-15T06:02:29.288Z,-1.4
2018-02-15T06:03:54.165Z,-1.5
2018-02-15T06:05:21.613Z,-1.5
2018-02-15T06:06:43.957Z,-1.5
2018-02-15T06:08:08.877Z,-1.4
2018-02-15T06:09:28.722Z,-1.5
2018-02-15T06:10:48.521Z,-1.5
2018-02-15T06:12:08.338Z,-1.4
2018-02-15T06:13:28.177Z,-1.5
2018-02-15T06:14:55.659Z,-1.5
2018-02-15T06:16:15.529Z,-1.5
2018-02-15T06:17:37.938Z,-1.5
2018-02-15T06:19:02.813Z,-1.5
2018-02-15T06:20:30.245Z,-1.5
2018-02-15T06:21:50.137Z,-1.4
2018-02-15T06:23:10.020Z,-1.4
2018-02-15T06:24:37.422Z,-1.4
2018-02-15T06:25:57.278Z,-1.4
2018-02-15T06:27:17.137Z,-1.4
2018-02-15T06:28:36.965Z,-1.4
2018-02-15T06:30:01.852Z,-1.4
2018-02-15T06:31:29.302Z,-1.4
2018-02-15T06:32:49.124Z,-1.4
2018-02-15T06:34:08.964Z,-1.4
2018-02-15T06:35:28.771Z,-1.4
2018-02-15T06:36:53.686Z,-1.4
2018-02-15T06:38:31.306Z,-1.4
2018-02-15T06:39:51.151Z,-1.4
2018-02-15T06:41:11.022Z,-1.3
2018-02-15T06:42:33.368Z,-1.4
2018-02-15T06:43:58.239Z,-1.4
2018-02-15T06:45:23.124Z,-1.3
2018-02-15T06:46:42.962Z,-1.3
2018-02-15T06:48:28.134Z,-1.3
2018-02-15T06:49:47.941Z,-1.3
2018-02-15T06:51:07.757Z,-1.3
2018-02-15T06:52:27.567Z,-1.2
2018-02-15T06:53:47.425Z,-1.2
2018-02-15T06:55:09.771Z,-1.2
2018-02-15T06:56:29.585Z,-1.2
2018-02-15T06:57:49.399Z,-1.2
2018-02-15T06:59:09.270Z,-1.2
2018-02-15T07:00:31.642Z,-1.1
2018-02-15T07:01:51.513Z,-1.1
2018-02-15T07:03:11.361Z,-1.1
2018-02-15T07:04:31.237Z,-1.1
2018-02-15T07:05:53.576Z,-1.1
2018-02-15T07:07:15.955Z,-1.1
2018-02-15T07:08:35.789Z,-1.1
2018-02-15T07:09:55.603Z,-1
2018-02-15T07:11:15.498Z,-1
2018-02-15T07:12:40.453Z,-1
2018-02-15T07:14:02.857Z,-1
2018-02-15T07:15:27.760Z,-1
2018-02-15T07:16:50.113Z,-0.9
2018-02-15T07:18:12.476Z,-0.9
2018-02-15T07:19:32.349Z,-0.9
2018-02-15T07:20:52.154Z,-0.9
2018-02-15T07:22:14.507Z,-0.9
2018-02-15T07:23:39.404Z,-0.8
2018-02-15T07:25:04.349Z,-0.8
2018-02-15T07:26:24.176Z,-0.8
2018-02-15T07:27:44.052Z,-0.8
2018-02-15T07:29:03.920Z,-0.8
2018-02-15T07:30:23.738Z,-0.7
2018-02-15T07:31:51.196Z,-0.7
2018-02-15T07:33:11.045Z,-0.7
2018-02-15T07:34:30.901Z,-0.7
2018-02-15T07:35:55.801Z,-0.6
2018-02-15T07:37:18.191Z,-0.6
2018-02-15T07:38:43.097Z,-0.5
2018-02-15T07:40:05.481Z,-0.5
2018-02-15T07:41:25.357Z,-0.5
2018-02-15T07:42:45.205Z,-0.5
2018-02-15T07:44:05.043Z,-0.4
2018-02-15T07:45:24.882Z,-0.4
2018-02-15T07:46:44.726Z,-0.3
2018-02-15T07:48:17.198Z,-0.2
2018-02-15T07:49:37.022Z,-0.2
2018-02-15T07:50:56.866Z,-0.2
2018-02-15T07:52:16.700Z,-0.1
2018-02-15T07:53:39.073Z,-0.1
2018-02-15T07:54:58.899Z,-0.1
2018-02-15T07:56:21.317Z,-0.1
2018-02-15T07:57:41.165Z,-0.1
2018-02-15T07:59:01.026Z,-0.1
2018-02-15T08:00:20.940Z,-0.1
2018-02-15T08:01:43.284Z,0
2018-02-15T08:03:08.232Z,0
2018-02-15T08:04:33.091Z,0
2018-02-15T08:05:52.896Z,0.1
2018-02-15T08:07:12.705Z,0.1
2018-02-15T08:08:35.037Z,0.1
2018-02-15T08:09:54.862Z,0.1
2018-02-15T08:11:14.682Z,0.2
2018-02-15T08:12:34.529Z,0.2
2018-02-15T08:13:54.378Z,0.2
2018-02-15T08:15:14.213Z,0.2
2018-02-15T08:16:34.017Z,0.2
2018-02-15T08:17:58.879Z,0.3
2018-02-15T08:19:18.699Z,0.3
2018-02-15T08:20:43.560Z,0.2
2018-02-15T08:22:03.358Z,0.2
2018-02-15T08:23:23.177Z,0.2
2018-02-15T08:24:48.064Z,0.3
2018-02-15T08:26:07.901Z,0.3
2018-02-15T08:27:27.762Z,0.3
2018-02-15T08:28:47.573Z,0.4
2018-02-15T08:30:07.376Z,0.4
2018-02-15T08:31:27.185Z,0.5
2018-02-15T08:32:46.989Z,0.6
2018-02-15T08:34:09.341Z,0.5
2018-02-15T08:35:29.176Z,0.6
2018-02-15T08:37:01.667Z,0.6
2018-02-15T08:38:29.157Z,0.6
2018-02-15T08:39:51.528Z,0.7
2018-02-15T08:41:16.448Z,0.8
2018-02-15T08:42:36.287Z,0.7
2018-02-15T08:44:01.224Z,0.8
2018-02-15T08:45:26.156Z,0.9
2018-02-15T08:46:48.507Z,1
2018-02-15T08:48:08.331Z,0.9
2018-02-15T08:49:28.159Z,1
2018-02-15T08:50:50.482Z,0.9
2018-02-15T08:52:15.407Z,1
2018-02-15T08:53:35.262Z,1.1
2018-02-15T08:54:55.077Z,1.1
2018-02-15T08:56:14.868Z,1.2
2018-02-15T08:57:34.714Z,1.2
2018-02-15T08:58:54.543Z,1.2
2018-02-15T09:00:14.364Z,1.2
2018-02-15T09:01:34.193Z,1.2
2018-02-15T09:02:53.997Z,1.2
2018-02-15T09:04:13.811Z,1.3
2018-02-15T09:05:51.374Z,1.2
2018-02-15T09:07:21.314Z,1.2
2018-02-15T09:08:41.150Z,1.3
2018-02-15T09:10:01.027Z,1.3
2018-02-15T09:11:20.858Z,1.1
2018-02-15T09:12:43.244Z,1.2
2018-02-15T09:14:05.583Z,1.3
2018-02-15T09:15:25.453Z,1.3
2018-02-15T09:16:47.800Z,1.3
2018-02-15T09:18:12.681Z,1.4
2018-02-15T09:19:42.667Z,1.4
2018-02-15T09:21:07.521Z,1.4
2018-02-15T09:22:32.382Z,1.4
2018-02-15T09:23:54.759Z,1.5
2018-02-15T09:25:24.692Z,1.4
2018-02-15T09:26:47.054Z,1.4
2018-02-15T09:28:06.865Z,1.4
2018-02-15T09:29:26.684Z,1.4
2018-02-15T09:30:46.534Z,1.6
2018-02-15T09:32:06.370Z,1.5
2018-02-15T09:33:31.265Z,1.7
2018-02-15T09:35:01.239Z,1.6
2018-02-15T09:36:21.136Z,1.8
2018-02-15T09:37:43.467Z,1.8
2018-02-15T09:39:03.311Z,1.8
2018-02-15T09:40:23.142Z,1.9
2018-02-15T09:41:45.469Z,2
2018-02-15T09:43:05.315Z,2.1
2018-02-15T09:44:25.136Z,1.9
2018-02-15T09:45:47.462Z,1.8
2018-02-15T09:47:14.931Z,1.7
2018-02-15T09:48:37.298Z,1.7
2018-02-15T09:49:59.641Z,1.5
2018-02-15T09:51:19.467Z,1.6
2018-02-15T09:52:44.407Z,1.5
2018-02-15T09:54:04.207Z,1.6
2018-02-15T09:55:26.569Z,1.6
2018-02-15T09:56:46.407Z,1.6
2018-02-15T09:58:06.271Z,1.6
2018-02-15T09:59:26.120Z,1.7
2018-02-15T10:00:45.947Z,1.8
2018-02-15T10:02:05.829Z,1.9
2018-02-15T10:03:25.649Z,1.8
2018-02-15T10:04:53.071Z,1.7
2018-02-15T10:06:12.917Z,1.7
2018-02-15T10:07:32.736Z,1.5
2018-02-15T10:08:52.586Z,1.7
2018-02-15T10:10:14.927Z,1.7
2018-02-15T10:11:37.258Z,1.6
2018-02-15T10:12:57.052Z,1.6
2018-02-15T10:14:26.985Z,1.7
2018-02-15T10:15:51.864Z,1.7
2018-02-15T10:17:11.717Z,1.6
2018-02-15T10:18:31.550Z,1.6
2018-02-15T10:19:53.882Z,1.6
2018-02-15T10:21:13.745Z,1.6
2018-02-15T10:22:38.618Z,1.5
2018-02-15T10:24:06.049Z,1.6
2018-02-15T10:25:28.384Z,1.6
2018-02-15T10:27:00.869Z,1.6
2018-02-15T10:28:23.197Z,1.6
2018-02-15T10:29:43.023Z,1.7
2018-02-15T10:31:02.862Z,1.6
2018-02-15T10:32:25.211Z,1.6
2018-02-15T10:33:45.009Z,1.7
2018-02-15T10:35:09.930Z,1.7
2018-02-15T10:36:37.372Z,1.9
2018-02-15T10:37:59.769Z,1.9
2018-02-15T10:39:22.100Z,1.9
2018-02-15T10:40:41.947Z,1.8
2018-02-15T10:42:01.748Z,1.8
2018-02-15T10:43:21.607Z,1.8
2018-02-15T10:44:46.529Z,1.8
2018-02-15T10:46:06.405Z,1.8
2018-02-15T10:47:28.780Z,1.7
2018-02-15T10:48:56.218Z,1.7
2018-02-15T10:50:16.113Z,1.7
2018-02-15T10:51:35.942Z,1.6
2018-02-15T10:53:00.857Z,1.5
2018-02-15T10:54:20.663Z,1.6
2018-02-15T10:55:40.485Z,1.6
2018-02-15T10:57:07.944Z,1.7
2018-02-15T10:58:30.274Z,1.7
2018-02-15T10:59:52.669Z,1.8
2018-02-15T11:01:12.460Z,1.9
2018-02-15T11:02:32.317Z,1.9
2018-02-15T11:03:52.128Z,1.9
2018-02-15T11:05:11.942Z,2
2018-02-15T11:06:34.264Z,2
2018-02-15T11:07:54.077Z,1.8
2018-02-15T11:09:13.914Z,1.8
2018-02-15T11:10:46.418Z,1.7
2018-02-15T11:12:06.288Z,1.7
2018-02-15T11:13:31.214Z,1.7
2018-02-15T11:14:51.098Z,1.7
2018-02-15T11:16:26.123Z,1.7
2018-02-15T11:17:45.973Z,1.6
2018-02-15T11:19:05.800Z,1.6
2018-02-15T11:20:25.633Z,1.8
2018-02-15T11:21:45.461Z,1.8
2018-02-15T11:23:10.335Z,1.8
2018-02-15T11:24:32.663Z,1.8
2018-02-15T11:25:52.463Z,1.7
2018-02-15T11:27:14.892Z,1.9
2018-02-15T11:28:39.821Z,2
2018-02-15T11:29:59.633Z,1.9
2018-02-15T11:31:19.434Z,1.9
2018-02-15T11:32:39.251Z,2
2018-02-15T11:33:59.075Z,2.1
2018-02-15T11:35:18.875Z,2.1
2018-02-15T11:36:38.711Z,2.1
2018-02-15T11:37:58.526Z,2.2
2018-02-15T11:39:23.376Z,2.3
2018-02-15T11:40:43.274Z,2.4
2018-02-15T11:42:03.087Z,2.4
2018-02-15T11:43:22.902Z,2.4
2018-02-15T11:44:42.730Z,2.3
2018-02-15T11:46:05.073Z,2.4
2018-02-15T11:47:27.416Z,2.4
2018-02-15T11:48:49.757Z,2.5
2018-02-15T11:50:09.564Z,2.5
2018-02-15T11:51:31.910Z,2.5
2018-02-15T11:52:51.708Z,2.5
2018-02-15T11:54:14.106Z,2.6
2018-02-15T11:55:33.935Z,2.8
2018-02-15T11:56:56.294Z,2.8
2018-02-15T11:58:16.119Z,2.9
2018-02-15T11:59:41.039Z,2.8
2018-02-15T12:01:00.876Z,2.8
2018-02-15T12:02:20.750Z,2.8
2018-02-15T12:03:40.566Z,2.8
2018-02-15T12:05:00.452Z,2.8
2018-02-15T12:06:25.404Z,2.9
2018-02-15T12:07:45.211Z,2.8
2018-02-15T12:09:12.618Z,2.8
2018-02-15T12:10:34.984Z,2.8
2018-02-15T12:11:54.780Z,2.9
2018-02-15T12:13:14.636Z,2.8
2018-02-15T12:14:34.431Z,2.7
2018-02-15T12:15:56.760Z,2.8
2018-02-15T12:17:21.686Z,2.8
2018-02-15T12:18:44.030Z,2.9
2018-02-15T12:20:03.830Z,3
2018-02-15T12:21:23.628Z,3
2018-02-15T12:22:51.073Z,3
2018-02-15T12:24:10.916Z,2.9
2018-02-15T12:25:40.880Z,2.8
2018-02-15T12:27:08.311Z,2.8
2018-02-15T12:28:35.721Z,2.8
2018-02-15T12:29:55.532Z,2.9
2018-02-15T12:31:28.031Z,2.9
2018-02-15T12:32:47.815Z,2.7
2018-02-15T12:34:07.674Z,2.6
2018-02-15T12:35:30.027Z,2.5
2018-02-15T12:36:52.364Z,2.5
2018-02-15T12:38:12.161Z,2.6
2018-02-15T12:39:44.656Z,2.5
2018-02-15T12:41:04.498Z,2.4
2018-02-15T12:42:29.386Z,2.4
2018-02-15T12:43:51.718Z,2.4
2018-02-15T12:45:24.192Z,2.5
2018-02-15T12:46:46.554Z,2.5
2018-02-15T12:48:24.075Z,2.6
2018-02-15T12:49:48.930Z,2.7
2018-02-15T12:51:11.328Z,2.7
2018-02-15T12:52:36.223Z,2.7
2018-02-15T12:53:56.072Z,2.6
2018-02-15T12:55:33.612Z,2.6
2018-02-15T12:56:53.464Z,2.5
2018-02-15T12:58:15.895Z,2.6
2018-02-15T12:59:38.263Z,2.6
2018-02-15T13:00:58.108Z,2.7
2018-02-15T13:02:20.420Z,2.6
2018-02-15T13:03:42.801Z,2.5
2018-02-15T13:05:07.694Z,2.4
2018-02-15T13:06:27.490Z,2.4
2018-02-15T13:07:47.330Z,2.4
2018-02-15T13:09:09.661Z,2.4
2018-02-15T13:10:32.008Z,2.4
2018-02-15T13:11:54.329Z,2.4
2018-02-15T13:13:14.136Z,2.5
2018-02-15T13:14:39.035Z,2.6
2018-02-15T13:15:58.879Z,2.7
2018-02-15T13:17:23.753Z,2.8
2018-02-15T13:18:43.550Z,2.7
2018-02-15T13:20:03.364Z,2.6
2018-02-15T13:21:25.890Z,2.6
2018-02-15T13:22:50.771Z,2.5
2018-02-15T13:24:13.127Z,2.5
2018-02-15T13:25:35.507Z,2.4
2018-02-15T13:27:00.432Z,2.3
2018-02-15T13:28:25.356Z,2
2018-02-15T13:29:45.151Z,1.9
2018-02-15T13:31:07.495Z,1.9
2018-02-15T13:32:27.330Z,2
2018-02-15T13:33:57.270Z,2
2018-02-15T13:35:19.600Z,2
2018-02-15T13:36:41.936Z,2
2018-02-15T13:38:01.739Z,2.1
2018-02-15T13:39:26.651Z,2.1
2018-02-15T13:40:48.969Z,2
2018-02-15T13:42:08.772Z,2
2018-02-15T13:43:28.579Z,2
2018-02-15T13:44:48.408Z,2
2018-02-15T13:46:20.894Z,1.9
2018-02-15T13:47:43.264Z,1.8
2018-02-15T13:49:03.074Z,1.7
2018-02-15T13:50:25.415Z,1.6
2018-02-15T13:51:45.211Z,1.4
2018-02-15T13:53:10.090Z,1.4
2018-02-15T13:54:32.421Z,1.4
2018-02-15T13:55:52.284Z,1.3
2018-02-15T13:57:12.102Z,1.2
2018-02-15T13:58:34.489Z,1.1
2018-02-15T13:59:54.340Z,1
2018-02-15T14:01:16.681Z,1.1
2018-02-15T14:02:39.028Z,1.1
2018-02-15T14:04:08.953Z,0.9
2018-02-15T14:05:28.766Z,0.9
2018-02-15T14:07:01.302Z,0.8
2018-02-15T14:08:26.191Z,0.9
2018-02-15T14:09:46.037Z,1
2018-02-15T14:11:05.916Z,1
2018-02-15T14:12:25.758Z,1.1
2018-02-15T14:13:48.098Z,1.1
2018-02-15T14:15:07.903Z,1.2
2018-02-15T14:16:35.308Z,1.2
2018-02-15T14:17:55.158Z,1.4
2018-02-15T14:19:22.596Z,1.5
2018-02-15T14:20:44.929Z,1.6
2018-02-15T14:22:09.813Z,1.7
2018-02-15T14:23:29.633Z,1.7
2018-02-15T14:24:49.433Z,1.8
2018-02-15T14:26:14.286Z,1.8
2018-02-15T14:27:34.112Z,1.8
2018-02-15T14:29:01.546Z,1.6
2018-02-15T14:30:21.394Z,1.6
2018-02-15T14:31:48.818Z,1.5
2018-02-15T14:33:08.627Z,1.7
2018-02-15T14:34:31.035Z,1.7
2018-02-15T14:36:00.986Z,2
2018-02-15T14:37:20.860Z,2.2
2018-02-15T14:38:40.656Z,2.5
2018-02-15T14:40:03.001Z,2.9
2018-02-15T14:41:27.911Z,3.1
2018-02-15T14:42:50.247Z,3.2
2018-02-15T14:44:10.102Z,3.5
2018-02-15T14:45:29.903Z,3.4
2018-02-15T14:46:52.286Z,3.2
2018-02-15T14:48:12.088Z,3.4
2018-02-15T14:49:39.502Z,3.4
2018-02-15T14:50:59.350Z,3.4
2018-02-15T14:52:19.156Z,3.3
2018-02-15T14:53:38.985Z,3.1
2018-02-15T14:54:58.782Z,3.3
2018-02-15T14:56:21.178Z,3.6
2018-02-15T14:57:41.006Z,3.6
2018-02-15T14:59:03.359Z,3.4
2018-02-15T15:00:23.156Z,3.5
2018-02-15T15:01:48.107Z,3.4
2018-02-15T15:03:07.904Z,3.5
2018-02-15T15:04:27.698Z,3.5
2018-02-15T15:05:47.551Z,3.6
2018-02-15T15:07:12.443Z,3.4
2018-02-15T15:08:39.831Z,3.3
2018-02-15T15:10:22.415Z,3.2
2018-02-15T15:11:44.750Z,3
2018-02-15T15:13:09.596Z,2.8
2018-02-15T15:14:29.459Z,2.5
2018-02-15T15:15:49.257Z,2.2
2018-02-15T15:17:09.085Z,2
2018-02-15T15:18:31.483Z,1.7
2018-02-15T15:19:58.905Z,1.7
2018-02-15T15:21:26.380Z,1.6
2018-02-15T15:22:48.715Z,1.7
2018-02-15T15:24:08.552Z,1.6
2018-02-15T15:25:41.072Z,1.3
2018-02-15T15:27:03.429Z,1.3
2018-02-15T15:28:25.787Z,1.2
2018-02-15T15:29:50.650Z,1.1
2018-02-15T15:31:15.587Z,1.2
2018-02-15T15:32:35.458Z,1.3
2018-02-15T15:33:55.307Z,1.4
2018-02-15T15:35:17.648Z,1.5
2018-02-15T15:36:45.111Z,1.5
2018-02-15T15:38:04.928Z,1.6
2018-02-15T15:39:29.843Z,1.7
2018-02-15T15:40:57.259Z,1.9
2018-02-15T15:42:42.371Z,1.9
2018-02-15T15:44:02.161Z,2
2018-02-15T15:45:24.493Z,1.9
2018-02-15T15:46:44.348Z,2
2018-02-15T15:48:06.704Z,2
2018-02-15T15:49:29.051Z,1.9
2018-02-15T15:50:48.895Z,1.7
2018-02-15T15:52:11.261Z,1.6
2018-02-15T15:53:31.125Z,1.5
2018-02-15T15:54:53.470Z,1.4
2018-02-15T15:56:13.327Z,1.4
2018-02-15T15:57:45.797Z,1.2
2018-02-15T15:59:05.598Z,1
2018-02-15T16:00:30.515Z,1
2018-02-15T16:02:00.505Z,1
2018-02-15T16:03:20.366Z,1
2018-02-15T16:04:40.174Z,0.8
2018-02-15T16:06:10.101Z,0.8
2018-02-15T16:07:29.944Z,0.8
2018-02-15T16:08:49.759Z,0.8
2018-02-15T16:10:12.088Z,0.7
2018-02-15T16:11:34.513Z,0.6
2018-02-15T16:12:54.379Z,0.4
2018-02-15T16:14:16.719Z,0.3
2018-02-15T16:15:36.592Z,0.2
2018-02-15T16:16:56.426Z,0.2
2018-02-15T16:18:16.294Z,0.2
2018-02-15T16:19:36.165Z,0.1
2018-02-15T16:20:56.014Z,0
2018-02-15T16:22:15.860Z,-0.1
2018-02-15T16:23:35.678Z,-0.1
2018-02-15T16:24:55.502Z,0
2018-02-15T16:26:15.380Z,-0.1
2018-02-15T16:27:35.201Z,-0.1
2018-02-15T16:28:57.594Z,-0.1
2018-02-15T16:30:30.063Z,-0.1
2018-02-15T16:31:54.984Z,-0.1
2018-02-15T16:33:24.936Z,-0.2
2018-02-15T16:34:44.810Z,-0.2
2018-02-15T16:36:04.670Z,-0.2
2018-02-15T16:37:27.066Z,-0.2
2018-02-15T16:38:46.916Z,-0.2
2018-02-15T16:40:06.741Z,-0.2
2018-02-15T16:41:29.151Z,-0.2
2018-02-15T16:42:54.041Z,-0.2
2018-02-15T16:44:13.870Z,-0.1
2018-02-15T16:45:33.701Z,-0.1
2018-02-15T16:46:58.591Z,0
2018-02-15T16:48:23.517Z,0
2018-02-15T16:49:43.333Z,0.1
2018-02-15T16:51:03.136Z,0.1
2018-02-15T16:52:23.025Z,0.2
2018-02-15T16:53:42.854Z,0.1
2018-02-15T16:55:07.719Z,0.1
2018-02-15T16:56:30.036Z,0.1
2018-02-15T16:57:49.864Z,0.1
2018-02-15T16:59:12.197Z,0.2
2018-02-15T17:00:31.988Z,0.2
2018-02-15T17:02:04.437Z,0.2
2018-02-15T17:03:24.252Z,0.2
2018-02-15T17:04:49.112Z,0.3
2018-02-15T17:06:11.520Z,0.3
2018-02-15T17:07:41.469Z,0.3
2018-02-15T17:09:01.361Z,0.3
2018-02-15T17:10:26.255Z,0.3
2018-02-15T17:11:46.098Z,0.3
2018-02-15T17:13:05.934Z,0.3
2018-02-15T17:14:28.258Z,0.4
2018-02-15T17:15:48.075Z,0.4
2018-02-15T17:17:20.532Z,0.3
2018-02-15T17:18:42.911Z,0.4
2018-02-15T17:20:02.744Z,0.3
2018-02-15T17:21:42.848Z,0.3
2018-02-15T17:23:15.296Z,0.3
2018-02-15T17:24:35.084Z,0.4
2018-02-15T17:25:57.508Z,0.4
2018-02-15T17:27:17.362Z,0.5
2018-02-15T17:28:44.761Z,0.5
2018-02-15T17:30:04.592Z,0.5
2018-02-15T17:31:26.921Z,0.4
2018-02-15T17:32:46.720Z,0.4
2018-02-15T17:34:09.073Z,0.4
2018-02-15T17:35:31.437Z,0.5
2018-02-15T17:36:53.779Z,0.5
2018-02-15T17:38:16.152Z,0.5
2018-02-15T17:39:38.517Z,0.5
2018-02-15T17:41:03.401Z,0.5
2018-02-15T17:42:25.745Z,0.5
2018-02-15T17:43:48.087Z,0.5
2018-02-15T17:45:12.956Z,0.5
2018-02-15T17:46:45.424Z,0.5
2018-02-15T17:48:20.440Z,0.6
2018-02-15T17:49:45.348Z,0.6
2018-02-15T17:51:05.209Z,0.6
2018-02-15T17:52:27.562Z,0.7
2018-02-15T17:53:47.369Z,0.7
2018-02-15T17:55:09.686Z,0.7
2018-02-15T17:56:29.496Z,0.7
2018-02-15T17:57:49.346Z,0.7
2018-02-15T17:59:14.211Z,0.7
2018-02-15T18:00:41.652Z,0.8
2018-02-15T18:02:04.021Z,0.7
2018-02-15T18:03:23.883Z,0.7
2018-02-15T18:04:43.684Z,0.7
2018-02-15T18:06:03.469Z,0.7
2018-02-15T18:07:30.942Z,0.6
2018-02-15T18:08:53.279Z,0.7
2018-02-15T18:10:13.084Z,0.7
2018-02-15T18:11:32.896Z,0.7
2018-02-15T18:12:57.756Z,0.7
2018-02-15T18:14:22.703Z,0.7
2018-02-15T18:15:45.058Z,0.7
2018-02-15T18:17:07.388Z,0.7
2018-02-15T18:18:27.182Z,0.7
2018-02-15T18:19:47.029Z,0.7
2018-02-15T18:21:16.966Z,0.7
2018-02-15T18:22:36.815Z,0.7
2018-02-15T18:24:06.770Z,0.7
2018-02-15T18:25:29.110Z,0.7
2018-02-15T18:26:48.905Z,0.8
2018-02-15T18:28:08.719Z,0.7
2018-02-15T18:29:28.531Z,0.8
2018-02-15T18:30:48.376Z,0.7
2018-02-15T18:32:15.803Z,0.7
2018-02-15T18:33:40.674Z,0.7
2018-02-15T18:35:00.507Z,0.7
2018-02-15T18:36:35.540Z,0.7
2018-02-15T18:38:05.528Z,0.7
2018-02-15T18:39:25.379Z,0.8
2018-02-15T18:40:47.712Z,0.7
2018-02-15T18:42:12.601Z,0.8
2018-02-15T18:43:32.433Z,0.8
2018-02-15T18:44:52.223Z,0.9